createdAt,value
2019-02-02T00:02:27.956Z,67.60
2019-02-02T00:05:00.198Z,67.60
2019-02-02T00:07:37.889Z,67.70
2019-02-02T00:10:12.385Z,67.80
2019-02-02T00:12:45.086Z,67.80
2019-02-02T00:15:16.470Z,67.90
2019-02-02T00:17:59.026Z,67.90
2019-02-02T00:20:31.985Z,68.00
2019-02-02T00:23:24.838Z,68.00
2019-02-02T00:25:50.004Z,68.40
2019-02-02T00:28:21.197Z,68.10
2019-02-02T00:30:52.337Z,68.00
2019-02-02T00:33:27.219Z,68.10
2019-02-02T00:36:01.830Z,68.10
2019-02-02T00:38:41.162Z,68.10
2019-02-02T00:41:14.192Z,68.00
2019-02-02T00:43:45.164Z,68.00
2019-02-02T00:46:30.299Z,68.00
2019-02-02T00:49:32.228Z,68.10
2019-02-02T00:52:19.118Z,68.90
2019-02-02T00:54:54.290Z,68.00
2019-02-02T00:57:52.693Z,68.00
2019-02-02T01:00:27.559Z,67.90
2019-02-02T01:03:08.835Z,68.00
2019-02-02T01:05:44.683Z,68.10
2019-02-02T01:08:30.930Z,68.20
2019-02-02T01:11:03.254Z,68.20
2019-02-02T01:13:40.754Z,68.30
2019-02-02T01:16:30.480Z,68.20
2019-02-02T01:19:02.934Z,68.30
2019-02-02T01:21:45.392Z,68.20
2019-02-02T01:24:11.178Z,68.20
2019-02-02T01:27:07.216Z,68.20
2019-02-02T01:30:03.875Z,68.20
2019-02-02T01:32:53.727Z,68.20
2019-02-02T01:35:40.903Z,68.20
2019-02-02T01:38:13.477Z,68.20
2019-02-02T01:40:44.733Z,68.20
2019-02-02T01:43:18.004Z,69.00
2019-02-02T01:45:55.648Z,68.40
2019-02-02T01:48:28.833Z,68.40
2019-02-02T01:51:04.348Z,68.40
2019-02-02T01:53:36.565Z,68.40
2019-02-02T01:56:07.501Z,68.50
2019-02-02T01:58:38.685Z,68.50
2019-02-02T02:01:09.718Z,68.80
2019-02-02T02:03:44.024Z,68.90
2019-02-02T02:06:17.436Z,68.80
2019-02-02T02:08:55.394Z,69.60
2019-02-02T02:11:34.019Z,68.90
2019-02-02T02:14:07.995Z,68.90
2019-02-02T02:16:48.380Z,68.80
2019-02-02T02:19:19.468Z,68.70
2019-02-02T02:21:50.674Z,68.80
2019-02-02T02:24:24.217Z,69.00
2019-02-02T02:26:54.929Z,69.00
2019-02-02T02:29:26.065Z,69.00
2019-02-02T02:31:56.832Z,69.20
2019-02-02T02:34:33.598Z,69.40
2019-02-02T02:37:12.064Z,69.50
2019-02-02T02:39:47.844Z,69.50
2019-02-02T02:42:24.744Z,69.50
2019-02-02T02:45:03.056Z,69.40
2019-02-02T02:47:41.506Z,69.60
2019-02-02T02:50:23.905Z,69.60
2019-02-02T02:53:16.420Z,69.60
2019-02-02T02:55:51.270Z,69.60
2019-02-02T02:58:22.011Z,69.60
2019-02-02T03:00:56.356Z,69.60
2019-02-02T03:03:29.080Z,69.70
2019-02-02T03:06:02.822Z,69.70
2019-02-02T03:08:34.043Z,69.60
2019-02-02T03:11:05.004Z,69.80
2019-02-02T03:13:35.868Z,69.20
2019-02-02T03:16:06.750Z,69.80
2019-02-02T03:18:39.584Z,70.00
2019-02-02T03:21:18.305Z,70.10
2019-02-02T03:23:49.647Z,70.10
2019-02-02T03:26:21.795Z,70.30
2019-02-02T03:28:53.699Z,70.30
2019-02-02T03:31:25.108Z,71.20
2019-02-02T03:33:55.891Z,70.40
2019-02-02T03:36:27.099Z,70.30
2019-02-02T03:38:58.021Z,70.50
2019-02-02T03:41:28.775Z,71.20
2019-02-02T03:44:00.286Z,70.50
2019-02-02T03:46:31.393Z,70.70
2019-02-02T03:49:04.583Z,70.70
2019-02-02T03:51:35.580Z,70.70
2019-02-02T03:54:09.207Z,70.70
2019-02-02T03:56:41.418Z,70.90
2019-02-02T03:59:13.529Z,70.90
2019-02-02T04:01:44.554Z,70.90
2019-02-02T04:04:19.187Z,71.00
2019-02-02T04:06:51.993Z,71.00
2019-02-02T04:09:22.981Z,71.00
2019-02-02T04:11:53.857Z,71.10
2019-02-02T04:14:29.466Z,71.00
2019-02-02T04:17:03.641Z,71.00
2019-02-02T04:19:35.896Z,71.30
2019-02-02T04:22:06.951Z,71.40
2019-02-02T04:24:40.022Z,71.50
2019-02-02T04:27:11.490Z,71.40
2019-02-02T04:29:42.220Z,71.50
2019-02-02T04:32:12.937Z,71.40
2019-02-02T04:34:45.458Z,71.40
2019-02-02T04:37:16.402Z,71.40
2019-02-02T04:39:53.680Z,71.40
2019-02-02T04:42:24.621Z,71.60
2019-02-02T04:44:57.109Z,71.70
2019-02-02T04:47:40.431Z,71.70
2019-02-02T04:50:17.190Z,71.80
2019-02-02T04:52:52.351Z,71.70
2019-02-02T04:55:26.169Z,71.70
2019-02-02T04:58:01.034Z,71.60
2019-02-02T05:00:34.390Z,71.90
2019-02-02T05:03:09.860Z,72.00
2019-02-02T05:05:48.656Z,71.90
2019-02-02T05:08:21.898Z,72.00
2019-02-02T05:10:54.260Z,72.10
2019-02-02T05:13:28.273Z,72.10
2019-02-02T05:16:04.986Z,72.00
2019-02-02T05:18:35.884Z,72.10
2019-02-02T05:21:10.856Z,72.10
2019-02-02T05:23:45.313Z,72.40
2019-02-02T05:26:19.076Z,72.30
2019-02-02T05:28:50.174Z,72.40
2019-02-02T05:31:26.777Z,72.40
2019-02-02T05:33:57.332Z,72.40
2019-02-02T05:36:37.497Z,72.30
2019-02-02T05:39:10.996Z,72.30
2019-02-02T05:41:42.014Z,72.20
2019-02-02T05:44:16.533Z,72.30
2019-02-02T05:46:50.545Z,72.30
2019-02-02T05:49:24.879Z,72.20
2019-02-02T05:51:58.561Z,72.40
2019-02-02T05:54:33.024Z,72.50
2019-02-02T05:57:09.375Z,72.50
2019-02-02T05:59:52.985Z,72.70
2019-02-02T06:02:22.913Z,72.80
2019-02-02T06:04:55.079Z,72.80
2019-02-02T06:07:27.663Z,72.70
2019-02-02T06:10:04.469Z,72.70
2019-02-02T06:12:35.278Z,72.60
2019-02-02T06:15:09.095Z,72.50
2019-02-02T06:18:06.074Z,72.60
2019-02-02T06:20:39.336Z,72.60
2019-02-02T06:23:15.257Z,72.80
2019-02-02T06:25:46.545Z,72.90
2019-02-02T06:28:23.095Z,72.90
2019-02-02T06:30:56.100Z,73.00
2019-02-02T06:33:29.076Z,73.00
2019-02-02T06:36:03.634Z,73.10
2019-02-02T06:38:36.240Z,73.20
2019-02-02T06:41:14.556Z,73.30
2019-02-02T06:43:50.045Z,73.40
2019-02-02T06:46:22.060Z,73.30
2019-02-02T06:48:54.949Z,73.30
2019-02-02T06:51:29.463Z,73.40
2019-02-02T06:54:18.122Z,73.30
2019-02-02T06:56:42.030Z,73.40
2019-02-02T06:59:17.495Z,73.40
2019-02-02T07:01:55.539Z,73.10
2019-02-02T07:04:27.736Z,73.30
2019-02-02T07:07:20.296Z,73.10
2019-02-02T07:09:51.103Z,73.00
2019-02-02T07:12:24.156Z,73.10
2019-02-02T07:14:56.869Z,73.00
2019-02-02T07:17:30.786Z,73.20
2019-02-02T07:20:07.637Z,73.30
2019-02-02T07:22:42.110Z,73.30
2019-02-02T07:25:27.969Z,73.30
2019-02-02T07:28:02.996Z,73.60
2019-02-02T07:30:33.763Z,73.50
2019-02-02T07:33:11.266Z,73.60
2019-02-02T07:35:45.657Z,73.60
2019-02-02T07:38:25.106Z,73.80
2019-02-02T07:40:57.186Z,73.70
2019-02-02T07:43:36.075Z,73.80
2019-02-02T07:46:15.037Z,73.80
2019-02-02T07:49:24.082Z,73.90
2019-02-02T07:55:00.030Z,73.90
2019-02-02T07:57:34.673Z,74.10
2019-02-02T08:00:41.375Z,75.00
2019-02-02T08:03:36.550Z,74.10
2019-02-02T08:06:18.093Z,74.20
2019-02-02T08:08:40.240Z,74.10
2019-02-02T08:11:16.905Z,74.20
2019-02-02T08:13:49.351Z,74.20
2019-02-02T08:16:30.737Z,74.20
2019-02-02T08:19:25.913Z,74.40
2019-02-02T08:21:57.755Z,74.40
2019-02-02T08:27:53.626Z,74.40
2019-02-02T08:30:52.315Z,74.40
2019-02-02T08:33:18.180Z,74.50
2019-02-02T08:35:57.600Z,74.50
2019-02-02T08:38:35.442Z,74.50
2019-02-02T08:41:25.170Z,74.60
2019-02-02T08:44:02.684Z,74.70
2019-02-02T08:46:35.101Z,74.60
2019-02-02T08:49:07.751Z,74.50
2019-02-02T08:51:42.354Z,74.50
2019-02-02T08:54:20.396Z,74.50
2019-02-02T08:56:54.943Z,74.60
2019-02-02T08:59:53.903Z,74.60
2019-02-02T09:02:33.356Z,74.60
2019-02-02T09:05:06.525Z,74.60
2019-02-02T09:07:41.455Z,74.50
2019-02-02T09:10:18.559Z,74.50
2019-02-02T09:12:49.895Z,74.60
2019-02-02T09:15:22.687Z,74.40
2019-02-02T09:17:53.986Z,74.30
2019-02-02T09:20:30.978Z,74.40
2019-02-02T09:23:06.777Z,74.30
2019-02-02T09:25:42.805Z,74.30
2019-02-02T09:28:14.088Z,74.30
2019-02-02T09:30:46.967Z,74.40
2019-02-02T09:33:30.829Z,74.30
2019-02-02T09:36:09.042Z,74.30
2019-02-02T09:38:40.507Z,74.30
2019-02-02T09:41:11.659Z,74.30
2019-02-02T09:43:48.193Z,74.40
2019-02-02T09:46:27.494Z,74.30
2019-02-02T09:48:58.050Z,74.20
2019-02-02T09:52:09.689Z,74.10
2019-02-02T09:54:53.828Z,74.00
2019-02-02T09:57:30.393Z,73.90
2019-02-02T10:00:37.846Z,73.90
2019-02-02T10:03:13.058Z,73.80
2019-02-02T10:05:46.870Z,73.90
2019-02-02T10:08:17.985Z,73.60
2019-02-02T10:10:52.169Z,73.50
2019-02-02T10:13:30.091Z,73.40
2019-02-02T10:16:02.354Z,73.40
2019-02-02T10:18:41.322Z,73.40
2019-02-02T10:21:15.201Z,73.30
2019-02-02T10:23:51.056Z,73.50
2019-02-02T10:26:24.590Z,73.20
2019-02-02T10:28:58.351Z,73.20
2019-02-02T10:31:53.353Z,73.30
2019-02-02T10:34:25.658Z,73.30
2019-02-02T10:36:58.224Z,73.20
2019-02-02T10:39:31.149Z,73.30
2019-02-02T10:42:07.934Z,73.20
2019-02-02T10:44:48.253Z,73.10
2019-02-02T10:47:30.592Z,72.90
2019-02-02T10:50:06.064Z,72.90
2019-02-02T10:52:37.961Z,72.80
2019-02-02T10:55:18.284Z,72.80
2019-02-02T10:57:52.173Z,72.60
2019-02-02T11:00:33.392Z,72.70
2019-02-02T11:03:08.015Z,73.10
2019-02-02T11:05:46.596Z,72.70
2019-02-02T11:08:26.575Z,73.00
2019-02-02T11:11:08.577Z,73.20
2019-02-02T11:13:43.358Z,73.40
2019-02-02T11:16:18.555Z,73.10
2019-02-02T11:18:57.729Z,73.20
2019-02-02T11:21:32.685Z,73.20
2019-02-02T11:24:07.962Z,73.00
2019-02-02T11:26:43.787Z,73.00
2019-02-02T11:29:23.982Z,72.90
2019-02-02T11:32:02.447Z,72.80
2019-02-02T11:34:36.966Z,72.80
2019-02-02T11:37:11.513Z,72.70
2019-02-02T11:39:50.215Z,72.80
2019-02-02T11:42:24.201Z,73.00
2019-02-02T11:45:03.288Z,72.90
2019-02-02T11:47:38.425Z,72.90
2019-02-02T11:50:10.920Z,72.90
2019-02-02T11:52:41.737Z,73.10
2019-02-02T11:55:30.564Z,73.30
2019-02-02T11:58:10.977Z,73.20
2019-02-02T12:00:54.538Z,73.10
2019-02-02T12:03:28.278Z,73.10
2019-02-02T12:06:02.767Z,73.10
2019-02-02T12:08:42.946Z,73.40
2019-02-02T12:11:17.827Z,73.30
2019-02-02T12:13:52.795Z,73.40
2019-02-02T12:16:28.942Z,73.50
2019-02-02T12:19:03.498Z,73.40
2019-02-02T12:21:39.522Z,73.60
2019-02-02T12:24:18.316Z,73.60
2019-02-02T12:26:56.841Z,73.60
2019-02-02T12:29:35.709Z,73.60
2019-02-02T12:32:07.058Z,73.80
2019-02-02T12:34:39.455Z,73.90
2019-02-02T12:37:10.361Z,73.90
2019-02-02T12:39:43.045Z,74.20
2019-02-02T12:42:17.287Z,74.20
2019-02-02T12:44:53.234Z,74.20
2019-02-02T12:47:24.235Z,74.40
2019-02-02T12:50:11.283Z,74.40
2019-02-02T12:52:39.236Z,74.30
2019-02-02T12:55:12.583Z,74.30
2019-02-02T12:57:52.239Z,74.40
2019-02-02T13:00:23.533Z,74.60
2019-02-02T13:03:01.349Z,74.50
2019-02-02T13:05:34.926Z,74.50
2019-02-02T13:08:06.985Z,74.40
2019-02-02T13:10:40.844Z,74.30
2019-02-02T13:13:23.315Z,74.30
2019-02-02T13:15:59.511Z,74.50
2019-02-02T13:18:37.140Z,74.60
2019-02-02T13:21:22.060Z,74.70
2019-02-02T13:24:02.179Z,74.60
2019-02-02T13:26:43.536Z,74.60
2019-02-02T13:29:19.187Z,74.60
2019-02-02T13:31:53.189Z,74.60
2019-02-02T13:34:24.154Z,74.50
2019-02-02T13:37:02.431Z,74.50
2019-02-02T13:39:35.381Z,74.60
2019-02-02T13:42:13.398Z,74.60
2019-02-02T13:45:06.946Z,74.60
2019-02-02T13:47:45.436Z,74.40
2019-02-02T13:50:33.793Z,74.60
2019-02-02T13:53:13.789Z,74.70
2019-02-02T13:55:57.732Z,74.90
2019-02-02T13:58:32.087Z,74.90
2019-02-02T14:01:05.540Z,74.90
2019-02-02T14:03:51.876Z,74.90
2019-02-02T14:06:22.898Z,75.60
2019-02-02T14:08:58.175Z,75.00
2019-02-02T14:11:34.109Z,75.00
2019-02-02T14:14:13.047Z,75.00
2019-02-02T14:16:47.022Z,75.10
2019-02-02T14:19:23.181Z,75.20
2019-02-02T14:21:56.021Z,75.20
2019-02-02T14:24:32.608Z,75.30
2019-02-02T14:27:14.372Z,75.30
2019-02-02T14:29:54.131Z,75.40
2019-02-02T14:32:36.757Z,75.50
2019-02-02T14:35:26.632Z,75.50
2019-02-02T14:37:53.564Z,75.50
2019-02-02T14:40:24.313Z,75.70
2019-02-02T14:43:08.035Z,75.70
2019-02-02T14:46:22.549Z,75.70
2019-02-02T14:48:59.860Z,75.80
2019-02-02T14:51:23.588Z,75.80
2019-02-02T14:54:29.888Z,75.80
2019-02-02T14:56:47.686Z,75.80
2019-02-02T14:59:20.816Z,75.90
2019-02-02T15:01:52.587Z,75.90
2019-02-02T15:04:33.453Z,76.00
2019-02-02T15:07:10.535Z,76.00
2019-02-02T15:09:41.416Z,76.00
2019-02-02T15:12:15.360Z,75.90
2019-02-02T15:14:47.553Z,75.80
2019-02-02T15:17:18.535Z,75.80
2019-02-02T15:19:55.462Z,75.60
2019-02-02T15:22:27.964Z,75.70
2019-02-02T15:25:03.860Z,75.60
2019-02-02T15:27:34.779Z,75.60
2019-02-02T15:30:16.489Z,75.40
2019-02-02T15:33:00.279Z,75.20
2019-02-02T15:35:39.505Z,75.50
2019-02-02T15:38:10.647Z,75.60
2019-02-02T15:41:03.342Z,74.80
2019-02-02T15:43:35.404Z,75.70
2019-02-02T15:46:12.011Z,75.70
2019-02-02T15:48:58.951Z,75.80
2019-02-02T15:51:48.812Z,75.80
2019-02-02T15:54:21.079Z,75.80
2019-02-02T15:56:59.852Z,75.60
2019-02-02T15:59:38.755Z,75.60
2019-02-02T16:02:16.365Z,75.90
2019-02-02T16:04:50.194Z,75.90
2019-02-02T16:07:32.182Z,76.70
2019-02-02T16:10:03.404Z,76.00
2019-02-02T16:12:36.017Z,76.00
2019-02-02T16:15:23.327Z,76.00
2019-02-02T16:18:12.416Z,76.00
2019-02-02T16:20:46.001Z,75.90
2019-02-02T16:23:54.957Z,75.90
2019-02-02T16:27:36.922Z,75.80
2019-02-02T16:29:10.249Z,75.80
2019-02-02T16:31:45.840Z,75.60
2019-02-02T16:34:17.001Z,75.60
2019-02-02T16:37:03.043Z,75.70
2019-02-02T16:39:31.877Z,75.80
2019-02-02T16:42:07.052Z,75.90
2019-02-02T16:44:39.841Z,75.90
2019-02-02T16:47:14.139Z,75.90
2019-02-02T16:49:48.807Z,75.90
2019-02-02T16:52:22.969Z,75.90
2019-02-02T16:54:54.226Z,75.90
2019-02-02T16:57:25.375Z,75.80
2019-02-02T16:59:57.407Z,75.80
2019-02-02T17:02:30.189Z,75.80
2019-02-02T17:05:01.339Z,76.00
2019-02-02T17:07:35.063Z,75.60
2019-02-02T17:10:12.671Z,75.60
2019-02-02T17:12:49.339Z,75.60
2019-02-02T17:15:24.596Z,75.60
2019-02-02T17:17:58.398Z,75.50
2019-02-02T17:20:47.514Z,75.60
2019-02-02T17:23:20.999Z,75.60
2019-02-02T17:25:59.207Z,75.50
2019-02-02T17:28:30.260Z,75.50
2019-02-02T17:31:04.888Z,75.40
2019-02-02T17:33:35.780Z,75.50
2019-02-02T17:36:09.386Z,75.60
2019-02-02T17:38:40.373Z,75.60
2019-02-02T17:41:11.457Z,75.60
2019-02-02T17:43:49.310Z,75.60
2019-02-02T17:46:24.152Z,75.60
2019-02-02T17:48:55.449Z,75.50
2019-02-02T17:51:26.335Z,75.40
2019-02-02T17:53:57.395Z,75.60
2019-02-02T17:56:28.238Z,75.60
2019-02-02T17:59:02.626Z,75.60
2019-02-02T18:01:43.122Z,76.50
2019-02-02T18:04:21.425Z,75.80
2019-02-02T18:06:55.455Z,75.70
2019-02-02T18:09:31.292Z,75.60
2019-02-02T18:12:12.669Z,75.60
2019-02-02T18:14:51.093Z,75.50
2019-02-02T18:17:30.981Z,75.50
2019-02-02T18:20:17.190Z,75.40
2019-02-02T18:22:53.684Z,75.50
2019-02-02T18:25:29.364Z,75.60
2019-02-02T18:28:11.459Z,75.60
2019-02-02T18:30:54.370Z,75.60
2019-02-02T18:33:26.688Z,75.60
2019-02-02T18:36:06.472Z,75.60
2019-02-02T18:38:41.394Z,75.80
2019-02-02T18:41:15.455Z,75.80
2019-02-02T18:43:46.176Z,75.70
2019-02-02T18:46:17.003Z,75.80
2019-02-02T18:48:55.682Z,75.70
2019-02-02T18:51:26.721Z,75.60
2019-02-02T18:53:59.373Z,75.70
2019-02-02T18:56:35.719Z,75.80
2019-02-02T18:59:09.374Z,75.80
2019-02-02T19:01:46.290Z,75.70
2019-02-02T19:04:17.058Z,75.80
2019-02-02T19:06:47.921Z,75.70
2019-02-02T19:09:18.839Z,75.90
2019-02-02T19:11:49.702Z,75.80
2019-02-02T19:14:26.901Z,75.80
2019-02-02T19:17:01.462Z,75.80
2019-02-02T19:19:33.767Z,75.80
2019-02-02T19:22:05.850Z,75.90
2019-02-02T19:24:42.717Z,75.80
2019-02-02T19:27:13.737Z,75.70
2019-02-02T19:29:46.575Z,75.70
2019-02-02T19:32:20.432Z,75.70
2019-02-02T19:34:58.120Z,75.50
2019-02-02T19:37:31.690Z,75.40
2019-02-02T19:40:06.002Z,75.50
2019-02-02T19:42:46.259Z,75.40
2019-02-02T19:45:19.655Z,75.40
2019-02-02T19:47:52.074Z,75.50
2019-02-02T19:50:29.405Z,75.50
2019-02-02T19:53:01.745Z,75.50
2019-02-02T19:55:32.762Z,75.50
2019-02-02T19:58:08.651Z,75.50
2019-02-02T20:00:42.071Z,75.50
2019-02-02T20:03:16.049Z,75.40
2019-02-02T20:05:48.575Z,75.40
2019-02-02T20:08:20.710Z,75.40
2019-02-02T20:10:52.823Z,75.50
2019-02-02T20:13:29.897Z,75.40
2019-02-02T20:16:07.249Z,76.30
2019-02-02T20:18:47.384Z,75.60
2019-02-02T20:21:21.687Z,75.60
2019-02-02T20:23:59.025Z,75.60
2019-02-02T20:26:30.314Z,75.60
2019-02-02T20:29:03.741Z,75.50
2019-02-02T20:31:37.779Z,75.60
2019-02-02T20:35:48.541Z,75.60
2019-02-02T20:36:49.591Z,75.60
2019-02-02T20:39:27.354Z,75.50
2019-02-02T20:42:07.469Z,75.50
2019-02-02T20:44:34.238Z,75.50
2019-02-02T20:47:20.357Z,75.40
2019-02-02T20:49:51.380Z,76.10
2019-02-02T20:52:48.001Z,75.20
2019-02-02T20:55:27.776Z,75.30
2019-02-02T20:58:09.960Z,75.10
2019-02-02T21:00:37.264Z,75.10
2019-02-02T21:03:08.788Z,75.00
2019-02-02T21:05:52.066Z,74.80
2019-02-02T21:08:17.506Z,74.70
2019-02-02T21:10:48.353Z,74.60
2019-02-02T21:13:20.873Z,74.70
2019-02-02T21:15:51.674Z,74.70
2019-02-02T21:18:36.054Z,74.80
2019-02-02T21:21:09.856Z,74.80
2019-02-02T21:24:00.043Z,74.80
2019-02-02T21:27:08.816Z,74.60
2019-02-02T21:29:58.448Z,74.80
2019-02-02T21:32:46.356Z,74.80
2019-02-02T21:35:36.174Z,74.80
2019-02-02T21:38:19.903Z,74.80
2019-02-02T21:41:08.589Z,74.60
2019-02-02T21:43:57.013Z,74.50
2019-02-02T21:47:40.475Z,74.60
2019-02-02T21:49:23.096Z,74.50
2019-02-02T21:52:17.595Z,74.60
2019-02-02T21:55:15.256Z,74.70
2019-02-02T21:57:57.792Z,74.80
2019-02-02T22:00:52.516Z,74.70
2019-02-02T22:04:07.099Z,74.70
2019-02-02T22:06:48.304Z,74.70
2019-02-02T22:09:26.515Z,74.60
2019-02-02T22:12:15.759Z,74.40
2019-02-02T22:14:56.329Z,74.50
2019-02-02T22:17:30.286Z,74.70
2019-02-02T22:20:20.857Z,74.60
2019-02-02T22:23:11.849Z,75.50
2019-02-02T22:26:17.475Z,74.90
2019-02-02T22:29:04.537Z,74.90
2019-02-02T22:31:37.383Z,75.00
2019-02-02T22:34:19.141Z,75.00
2019-02-02T22:37:10.676Z,75.20
2019-02-02T22:40:02.678Z,75.40
2019-02-02T22:42:46.722Z,75.50
2019-02-02T22:45:30.797Z,75.50
2019-02-02T22:48:02.959Z,75.70
2019-02-02T22:50:39.586Z,75.60
2019-02-02T22:53:23.197Z,75.60
2019-02-02T22:56:15.088Z,75.70
2019-02-02T22:58:55.478Z,75.80
2019-02-02T23:01:43.535Z,75.80
2019-02-02T23:04:50.426Z,75.90
2019-02-02T23:08:30.733Z,75.80
2019-02-02T23:12:08.503Z,75.90
2019-02-02T23:15:40.434Z,75.70
2019-02-02T23:18:19.131Z,75.50
2019-02-02T23:20:55.245Z,75.50
2019-02-02T23:23:33.227Z,75.60
2019-02-02T23:26:16.852Z,75.70
2019-02-02T23:29:18.108Z,75.80
2019-02-02T23:32:33.877Z,75.90
2019-02-02T23:35:18.377Z,75.90
2019-02-02T23:37:56.302Z,75.80
2019-02-02T23:40:40.303Z,76.00
2019-02-02T23:44:52.452Z,76.00
2019-02-02T23:45:54.695Z,76.30
2019-02-02T23:48:32.620Z,76.10
2019-02-02T23:51:04.127Z,76.10
2019-02-02T23:53:36.341Z,76.20
2019-02-02T23:56:29.974Z,76.20
2019-02-02T23:59:00.973Z,76.20
